createdAt,value
2019-05-17T00:01:57.668Z,13.30
2019-05-17T00:04:30.490Z,13.23
2019-05-17T00:07:02.779Z,13.08
2019-05-17T00:09:37.263Z,13.07
2019-05-17T00:12:08.989Z,13.10
2019-05-17T00:14:41.222Z,13.13
2019-05-17T00:17:13.471Z,13.14
2019-05-17T00:19:46.461Z,13.23
2019-05-17T00:22:18.834Z,13.29
2019-05-17T00:24:51.075Z,13.31
2019-05-17T00:27:23.785Z,13.29
2019-05-17T00:29:57.127Z,13.29
2019-05-17T00:32:29.553Z,13.28
2019-05-17T00:35:01.935Z,13.24
2019-05-17T00:37:34.120Z,13.18
2019-05-17T00:40:07.328Z,13.19
2019-05-17T00:42:39.685Z,13.19
2019-05-17T00:45:11.950Z,13.22
2019-05-17T00:47:46.596Z,13.16
2019-05-17T00:50:18.544Z,13.13
2019-05-17T00:52:52.777Z,13.03
2019-05-17T00:55:26.849Z,13.02
2019-05-17T00:58:01.684Z,13.01
2019-05-17T01:00:37.600Z,12.98
2019-05-17T01:03:09.904Z,12.90
2019-05-17T01:05:42.180Z,12.91
2019-05-17T01:08:14.457Z,12.96
2019-05-17T01:10:47.398Z,12.96
2019-05-17T01:13:19.986Z,12.94
2019-05-17T01:15:52.235Z,12.89
2019-05-17T01:18:26.770Z,12.92
2019-05-17T01:21:00.684Z,12.89
2019-05-17T01:23:33.285Z,12.87
2019-05-17T01:26:07.529Z,12.89
2019-05-17T01:28:41.460Z,12.95
2019-05-17T01:31:13.686Z,12.94
2019-05-17T01:33:47.015Z,12.82
2019-05-17T01:36:19.591Z,12.80
2019-05-17T01:38:51.863Z,12.81
2019-05-17T01:41:24.080Z,12.80
2019-05-17T01:43:56.942Z,12.75
2019-05-17T01:46:29.335Z,12.65
2019-05-17T01:49:01.915Z,12.60
2019-05-17T01:51:34.245Z,12.59
2019-05-17T01:54:06.920Z,12.58
2019-05-17T01:56:39.207Z,12.56
2019-05-17T01:59:11.765Z,12.62
2019-05-17T02:01:43.998Z,12.70
2019-05-17T02:04:17.515Z,12.70
2019-05-17T02:06:49.946Z,12.71
2019-05-17T02:09:34.965Z,12.70
2019-05-17T02:11:57.177Z,12.67
2019-05-17T02:14:29.709Z,12.67
2019-05-17T02:17:01.979Z,12.58
2019-05-17T02:19:34.220Z,12.55
2019-05-17T02:22:07.462Z,12.58
2019-05-17T02:24:39.921Z,12.61
2019-05-17T02:27:12.151Z,12.66
2019-05-17T02:29:44.391Z,12.69
2019-05-17T02:32:16.657Z,12.62
2019-05-17T02:34:52.952Z,12.58
2019-05-17T02:37:23.899Z,12.47
2019-05-17T02:40:03.059Z,12.31
2019-05-17T02:42:32.981Z,12.21
2019-05-17T02:45:06.101Z,12.20
2019-05-17T02:47:38.338Z,12.12
2019-05-17T02:50:12.946Z,11.97
2019-05-17T02:52:44.486Z,11.85
2019-05-17T02:55:16.736Z,11.76
2019-05-17T02:57:49.035Z,11.72
2019-05-17T03:00:23.947Z,11.65
2019-05-17T03:02:55.215Z,11.56
2019-05-17T03:05:27.463Z,11.45
2019-05-17T03:08:03.622Z,11.39
2019-05-17T03:10:34.124Z,11.37
2019-05-17T03:13:06.443Z,11.31
2019-05-17T03:15:38.711Z,11.27
2019-05-17T03:18:13.434Z,11.21
2019-05-17T03:20:46.002Z,11.14
2019-05-17T03:23:18.240Z,11.10
2019-05-17T03:25:52.490Z,11.05
2019-05-17T03:28:25.545Z,10.99
2019-05-17T03:30:57.762Z,10.95
2019-05-17T03:33:35.228Z,10.91
2019-05-17T03:36:06.463Z,10.91
2019-05-17T03:38:37.861Z,10.88
2019-05-17T03:41:22.826Z,10.87
2019-05-17T03:43:44.475Z,10.86
2019-05-17T03:46:16.905Z,10.83
2019-05-17T03:48:49.112Z,10.82
2019-05-17T03:51:23.361Z,10.77
2019-05-17T03:53:55.310Z,10.72
2019-05-17T03:56:27.720Z,10.70
2019-05-17T03:59:03.409Z,10.70
2019-05-17T04:01:34.077Z,10.67
2019-05-17T04:04:06.370Z,10.65
2019-05-17T04:06:38.634Z,10.68
2019-05-17T04:09:14.066Z,10.69
2019-05-17T04:11:46.534Z,10.72
2019-05-17T04:14:18.754Z,10.79
2019-05-17T04:16:53.671Z,10.97
2019-05-17T04:19:24.947Z,11.17
2019-05-17T04:21:57.380Z,11.36
2019-05-17T04:24:32.449Z,11.46
2019-05-17T04:27:04.001Z,11.49
2019-05-17T04:29:36.345Z,11.47
2019-05-17T04:32:08.645Z,11.49
2019-05-17T04:34:43.679Z,11.53
2019-05-17T04:37:14.919Z,11.54
2019-05-17T04:39:47.150Z,11.59
2019-05-17T04:42:22.418Z,11.54
2019-05-17T04:44:53.562Z,11.54
2019-05-17T04:47:28.200Z,11.63
2019-05-17T04:50:03.602Z,11.75
2019-05-17T04:52:34.471Z,11.81
2019-05-17T04:55:06.799Z,11.89
2019-05-17T04:57:43.324Z,11.96
2019-05-17T05:00:14.122Z,12.10
2019-05-17T05:02:46.411Z,12.13
2019-05-17T05:05:18.645Z,12.24
2019-05-17T05:07:53.468Z,12.30
2019-05-17T05:10:24.901Z,12.33
2019-05-17T05:12:57.341Z,12.37
2019-05-17T05:15:32.232Z,12.51
2019-05-17T05:18:04.164Z,12.76
2019-05-17T05:20:36.471Z,12.94
2019-05-17T05:23:08.746Z,12.97
2019-05-17T05:25:42.994Z,12.78
2019-05-17T05:28:14.951Z,12.73
2019-05-17T05:30:47.190Z,12.66
2019-05-17T05:33:22.167Z,12.72
2019-05-17T05:35:54.796Z,12.82
2019-05-17T05:38:27.029Z,12.88
2019-05-17T05:41:01.597Z,12.84
2019-05-17T05:43:33.437Z,12.79
2019-05-17T05:46:05.740Z,12.82
2019-05-17T05:48:38.014Z,12.85
2019-05-17T05:51:13.420Z,12.89
2019-05-17T05:53:44.428Z,12.93
2019-05-17T05:56:16.704Z,12.97
2019-05-17T05:58:49.030Z,13.11
2019-05-17T06:01:21.978Z,13.05
2019-05-17T06:03:55.576Z,13.02
2019-05-17T06:06:27.845Z,13.03
2019-05-17T06:09:02.574Z,13.10
2019-05-17T06:11:35.630Z,13.14
2019-05-17T06:14:07.856Z,13.22
2019-05-17T06:16:42.290Z,13.29
2019-05-17T06:19:14.135Z,13.27
2019-05-17T06:21:46.423Z,13.17
2019-05-17T06:24:18.672Z,13.29
2019-05-17T06:26:52.518Z,13.38
2019-05-17T06:29:25.004Z,13.47
2019-05-17T06:31:57.371Z,13.50
2019-05-17T06:34:29.667Z,13.49
2019-05-17T06:37:03.553Z,13.68
2019-05-17T06:39:35.834Z,13.82
2019-05-17T06:42:08.053Z,13.82
2019-05-17T06:44:41.893Z,13.92
2019-05-17T06:47:15.397Z,14.07
2019-05-17T06:49:50.503Z,14.17
2019-05-17T06:52:22.624Z,14.13
2019-05-17T06:54:55.297Z,14.01
2019-05-17T06:57:27.580Z,14.05
2019-05-17T07:00:02.440Z,14.01
2019-05-17T07:02:36.176Z,14.09
2019-05-17T07:05:09.893Z,14.10
2019-05-17T07:07:42.386Z,14.14
2019-05-17T07:10:14.642Z,14.23
2019-05-17T07:12:57.831Z,14.39
2019-05-17T07:15:21.236Z,14.57
2019-05-17T07:17:53.470Z,14.70
2019-05-17T07:20:25.718Z,14.72
2019-05-17T07:23:00.349Z,14.72
2019-05-17T07:25:32.588Z,14.82
2019-05-17T07:28:04.845Z,14.93
2019-05-17T07:30:36.940Z,14.92
2019-05-17T07:33:10.169Z,14.67
2019-05-17T07:35:42.915Z,14.66
2019-05-17T07:38:15.382Z,14.68
2019-05-17T07:40:49.974Z,14.68
2019-05-17T07:43:21.969Z,14.68
2019-05-17T07:45:54.247Z,14.76
2019-05-17T07:48:26.458Z,14.76
2019-05-17T07:50:59.381Z,14.91
2019-05-17T07:53:31.830Z,15.03
2019-05-17T07:56:04.305Z,15.30
2019-05-17T07:58:36.539Z,15.74
2019-05-17T08:01:10.062Z,15.70
2019-05-17T08:03:42.518Z,15.55
2019-05-17T08:06:14.802Z,15.37
2019-05-17T08:08:49.917Z,15.42
2019-05-17T08:11:20.960Z,15.68
2019-05-17T08:13:53.271Z,15.80
2019-05-17T08:16:25.595Z,15.74
2019-05-17T08:19:00.164Z,15.81
2019-05-17T08:21:32.193Z,15.73
2019-05-17T08:24:04.430Z,15.97
2019-05-17T08:26:36.713Z,16.20
2019-05-17T08:29:10.984Z,16.18
2019-05-17T08:31:44.488Z,16.25
2019-05-17T08:34:16.527Z,16.23
2019-05-17T08:36:49.849Z,16.31
2019-05-17T08:39:22.201Z,16.26
2019-05-17T08:41:54.460Z,16.02
2019-05-17T08:44:26.697Z,15.77
2019-05-17T08:46:59.486Z,15.74
2019-05-17T08:49:31.978Z,15.91
2019-05-17T08:52:04.210Z,16.13
2019-05-17T08:54:36.499Z,16.29
2019-05-17T08:57:09.583Z,16.40
2019-05-17T08:59:41.892Z,16.52
2019-05-17T09:02:16.147Z,16.86
2019-05-17T09:04:49.799Z,17.11
2019-05-17T09:07:22.224Z,17.09
2019-05-17T09:09:54.444Z,17.17
2019-05-17T09:12:26.688Z,17.24
2019-05-17T09:15:00.434Z,17.14
2019-05-17T09:17:32.926Z,17.16
2019-05-17T09:20:05.165Z,17.38
2019-05-17T09:22:39.651Z,17.54
2019-05-17T09:25:17.085Z,17.66
2019-05-17T09:27:45.514Z,17.78
2019-05-17T09:30:20.201Z,17.77
2019-05-17T09:32:51.869Z,17.90
2019-05-17T09:35:25.211Z,18.07
2019-05-17T09:37:57.439Z,18.09
2019-05-17T09:40:29.679Z,18.09
2019-05-17T09:43:02.181Z,17.97
2019-05-17T09:45:34.417Z,17.64
2019-05-17T09:48:06.818Z,17.33
2019-05-17T09:50:39.879Z,17.03
2019-05-17T09:53:12.468Z,16.75
2019-05-17T09:55:44.753Z,16.63
2019-05-17T09:58:21.429Z,16.64
2019-05-17T10:00:52.360Z,16.59
2019-05-17T10:03:24.659Z,16.48
2019-05-17T10:05:56.964Z,16.37
2019-05-17T10:08:29.223Z,16.34
2019-05-17T10:11:08.347Z,16.44
2019-05-17T10:13:35.656Z,16.87
2019-05-17T10:16:10.140Z,17.45
2019-05-17T10:18:42.254Z,17.95
2019-05-17T10:21:14.525Z,18.58
2019-05-17T10:23:46.763Z,19.02
2019-05-17T10:26:22.297Z,19.20
2019-05-17T10:28:54.592Z,19.36
2019-05-17T10:31:26.829Z,19.42
2019-05-17T10:34:01.062Z,19.50
2019-05-17T10:36:33.044Z,19.68
2019-05-17T10:39:05.282Z,19.86
2019-05-17T10:41:37.673Z,19.88
2019-05-17T10:44:09.901Z,19.84
2019-05-17T10:46:42.246Z,19.73
2019-05-17T10:49:14.475Z,19.50
2019-05-17T10:51:46.682Z,19.43
2019-05-17T10:54:20.598Z,19.06
2019-05-17T10:56:55.003Z,18.54
2019-05-17T10:59:27.451Z,18.42
2019-05-17T11:01:59.824Z,18.38
2019-05-17T11:04:32.348Z,18.35
2019-05-17T11:07:04.576Z,18.39
2019-05-17T11:09:39.862Z,18.62
2019-05-17T11:12:10.799Z,18.70
2019-05-17T11:14:52.587Z,18.76
2019-05-17T11:17:16.966Z,18.75
2019-05-17T11:19:49.329Z,18.67
2019-05-17T11:22:21.549Z,18.78
2019-05-17T11:24:53.892Z,19.25
2019-05-17T11:27:28.415Z,19.84
2019-05-17T11:30:03.114Z,20.15
2019-05-17T11:32:35.422Z,20.23
2019-05-17T11:35:07.661Z,20.68
2019-05-17T11:37:39.894Z,21.02
2019-05-17T11:40:12.195Z,21.00
2019-05-17T11:42:44.571Z,20.42
2019-05-17T11:45:27.304Z,20.19
2019-05-17T11:47:50.963Z,19.74
2019-05-17T11:50:23.274Z,19.56
2019-05-17T11:52:55.698Z,19.71
2019-05-17T11:55:27.924Z,19.75
2019-05-17T11:58:00.160Z,19.45
2019-05-17T12:00:32.415Z,19.17
2019-05-17T12:03:04.721Z,18.92
2019-05-17T12:05:37.047Z,18.94
2019-05-17T12:08:09.285Z,19.29
2019-05-17T12:10:41.631Z,20.18
2019-05-17T12:13:14.191Z,22.52
2019-05-17T12:15:46.423Z,25.71
2019-05-17T12:18:18.651Z,27.57
2019-05-17T12:20:50.920Z,27.99
2019-05-17T12:23:24.833Z,28.46
2019-05-17T12:25:57.624Z,28.51
2019-05-17T12:28:30.442Z,28.09
2019-05-17T12:31:03.354Z,28.72
2019-05-17T12:33:36.240Z,28.70
2019-05-17T12:36:09.220Z,28.08
2019-05-17T12:38:41.471Z,27.52
2019-05-17T12:41:13.761Z,26.40
2019-05-17T12:43:46.049Z,25.22
2019-05-17T12:46:18.339Z,24.26
2019-05-17T12:48:50.574Z,23.61
2019-05-17T12:51:22.879Z,23.24
2019-05-17T12:53:55.207Z,22.99
2019-05-17T12:56:27.522Z,22.60
2019-05-17T12:58:59.755Z,22.47
2019-05-17T13:01:32.283Z,22.25
2019-05-17T13:04:04.555Z,21.66
2019-05-17T13:06:36.776Z,21.23
2019-05-17T13:09:09.244Z,20.96
2019-05-17T13:11:41.529Z,20.49
2019-05-17T13:14:13.804Z,20.07
2019-05-17T13:16:46.111Z,19.79
2019-05-17T13:19:18.330Z,19.77
2019-05-17T13:21:50.634Z,19.80
2019-05-17T13:24:22.865Z,19.82
2019-05-17T13:26:55.430Z,19.83
2019-05-17T13:29:27.639Z,19.73
2019-05-17T13:31:59.879Z,19.66
2019-05-17T13:34:32.209Z,19.50
2019-05-17T13:37:05.623Z,19.56
2019-05-17T13:39:38.137Z,19.65
2019-05-17T13:42:10.404Z,19.65
2019-05-17T13:44:42.632Z,19.47
2019-05-17T13:47:14.684Z,19.35
2019-05-17T13:49:46.915Z,19.47
2019-05-17T13:52:21.154Z,19.46
2019-05-17T13:54:53.586Z,19.21
2019-05-17T13:57:25.888Z,18.93
2019-05-17T13:59:58.203Z,18.82
2019-05-17T14:02:30.466Z,18.75
2019-05-17T14:05:02.718Z,18.72
2019-05-17T14:07:35.158Z,18.64
2019-05-17T14:10:07.352Z,18.51
2019-05-17T14:12:39.663Z,18.46
2019-05-17T14:15:12.050Z,18.35
2019-05-17T14:17:44.435Z,18.42
2019-05-17T14:20:16.707Z,18.53
2019-05-17T14:22:49.003Z,18.62
2019-05-17T14:25:21.331Z,18.57
2019-05-17T14:27:53.532Z,18.61
2019-05-17T14:30:25.727Z,18.72
2019-05-17T14:32:58.161Z,18.64
2019-05-17T14:35:30.407Z,18.50
2019-05-17T14:38:02.630Z,18.24
2019-05-17T14:41:05.091Z,17.98
2019-05-17T14:43:08.993Z,17.90
2019-05-17T14:45:41.673Z,17.82
2019-05-17T14:48:13.959Z,17.74
2019-05-17T14:50:46.238Z,17.49
2019-05-17T14:53:18.559Z,17.28
2019-05-17T14:55:50.822Z,17.25
2019-05-17T14:58:23.123Z,17.26
2019-05-17T15:00:55.541Z,17.19
2019-05-17T15:03:28.060Z,17.10
2019-05-17T15:06:00.361Z,16.96
2019-05-17T15:08:32.611Z,16.88
2019-05-17T15:11:04.833Z,16.70
2019-05-17T15:13:37.095Z,16.62
2019-05-17T15:16:09.332Z,16.62
2019-05-17T15:18:41.669Z,16.56
2019-05-17T15:21:15.582Z,16.49
2019-05-17T15:23:47.857Z,16.50
2019-05-17T15:26:20.123Z,16.56
2019-05-17T15:28:52.737Z,16.56
2019-05-17T15:31:24.994Z,16.55
2019-05-17T15:33:57.235Z,16.38
2019-05-17T15:36:29.555Z,16.15
2019-05-17T15:39:01.914Z,16.15
2019-05-17T15:41:35.727Z,16.18
2019-05-17T15:44:08.366Z,16.22
2019-05-17T15:46:40.752Z,16.16
2019-05-17T15:49:13.119Z,16.13
2019-05-17T15:51:45.376Z,16.09
2019-05-17T15:54:17.722Z,16.04
2019-05-17T15:56:50.030Z,16.01
2019-05-17T15:59:22.285Z,15.99
2019-05-17T16:01:54.535Z,15.93
2019-05-17T16:04:26.847Z,15.93
2019-05-17T16:07:00.691Z,15.92
2019-05-17T16:09:32.963Z,15.86
2019-05-17T16:12:05.287Z,15.86
2019-05-17T16:14:37.590Z,15.88
2019-05-17T16:17:09.857Z,15.90
2019-05-17T16:19:42.220Z,15.89
2019-05-17T16:22:14.623Z,15.85
2019-05-17T16:24:47.264Z,15.87
2019-05-17T16:27:19.505Z,15.89
2019-05-17T16:29:51.805Z,15.90
2019-05-17T16:32:24.112Z,15.94
2019-05-17T16:34:56.675Z,15.95
2019-05-17T16:37:29.150Z,15.97
2019-05-17T16:40:01.410Z,15.99
2019-05-17T16:42:33.870Z,16.05
2019-05-17T16:45:06.153Z,16.08
2019-05-17T16:47:38.515Z,16.08
2019-05-17T16:50:10.884Z,16.10
2019-05-17T16:52:43.381Z,15.98
2019-05-17T16:55:15.756Z,15.94
2019-05-17T16:57:48.022Z,15.90
2019-05-17T17:00:20.499Z,15.85
2019-05-17T17:02:55.277Z,15.77
2019-05-17T17:05:30.564Z,15.73
2019-05-17T17:08:02.904Z,15.67
2019-05-17T17:10:35.142Z,15.62
2019-05-17T17:13:07.404Z,15.67
2019-05-17T17:15:40.033Z,15.66
2019-05-17T17:18:12.349Z,15.73
2019-05-17T17:20:44.677Z,15.81
2019-05-17T17:23:16.999Z,15.82
2019-05-17T17:25:49.236Z,15.81
2019-05-17T17:28:24.966Z,15.79
2019-05-17T17:30:55.588Z,15.77
2019-05-17T17:33:27.897Z,15.75
2019-05-17T17:36:00.151Z,15.78
2019-05-17T17:38:32.522Z,15.73
2019-05-17T17:41:05.035Z,15.67
2019-05-17T17:43:37.456Z,15.65
2019-05-17T17:46:10.520Z,15.62
2019-05-17T17:48:45.787Z,15.60
2019-05-17T17:51:16.992Z,15.60
2019-05-17T17:53:50.748Z,15.58
2019-05-17T17:56:23.152Z,15.53
2019-05-17T17:58:55.437Z,15.52
2019-05-17T18:01:27.704Z,15.47
2019-05-17T18:04:00.287Z,15.44
2019-05-17T18:06:32.989Z,15.39
2019-05-17T18:09:05.301Z,15.38
2019-05-17T18:11:37.881Z,15.36
2019-05-17T18:14:13.259Z,15.37
2019-05-17T18:16:44.166Z,15.39
2019-05-17T18:19:16.415Z,15.35
2019-05-17T18:21:48.655Z,15.35
2019-05-17T18:24:20.944Z,15.35
2019-05-17T18:26:53.293Z,15.34
2019-05-17T18:29:25.693Z,15.34
2019-05-17T18:31:57.985Z,15.35
2019-05-17T18:34:30.210Z,15.36
2019-05-17T18:37:04.115Z,15.38
2019-05-17T18:39:36.443Z,15.35
2019-05-17T18:42:08.855Z,15.32
2019-05-17T18:44:41.092Z,15.26
2019-05-17T18:47:13.566Z,15.24
2019-05-17T18:49:45.918Z,15.20
2019-05-17T18:52:18.169Z,15.12
2019-05-17T18:54:50.434Z,15.06
2019-05-17T18:57:22.737Z,15.02
2019-05-17T18:59:55.152Z,14.96
2019-05-17T19:02:27.401Z,14.89
2019-05-17T19:04:59.639Z,14.88
2019-05-17T19:07:31.873Z,14.84
2019-05-17T19:10:04.326Z,14.80
2019-05-17T19:12:36.687Z,14.78
2019-05-17T19:15:08.985Z,14.76
2019-05-17T19:17:41.234Z,14.74
2019-05-17T19:20:13.490Z,14.71
2019-05-17T19:22:46.034Z,14.65
2019-05-17T19:25:19.354Z,14.60
2019-05-17T19:27:51.582Z,14.58
2019-05-17T19:30:25.156Z,14.55
2019-05-17T19:32:57.355Z,14.53
2019-05-17T19:35:29.638Z,14.48
2019-05-17T19:38:01.924Z,14.45
2019-05-17T19:40:34.294Z,14.44
2019-05-17T19:43:06.734Z,14.40
2019-05-17T19:45:39.082Z,14.38
2019-05-17T19:48:11.309Z,14.39
2019-05-17T19:50:43.696Z,14.40
2019-05-17T19:53:16.014Z,14.38
2019-05-17T19:55:48.554Z,14.35
2019-05-17T19:58:21.914Z,14.32
2019-05-17T20:00:54.208Z,14.29
2019-05-17T20:03:26.471Z,14.25
2019-05-17T20:05:59.035Z,14.21
2019-05-17T20:08:31.440Z,14.16
2019-05-17T20:11:03.700Z,14.10
2019-05-17T20:13:36.074Z,14.09
2019-05-17T20:16:08.447Z,14.10
2019-05-17T20:18:40.830Z,14.10
2019-05-17T20:21:13.285Z,14.02
2019-05-17T20:23:45.554Z,13.94
2019-05-17T20:26:17.813Z,13.89
2019-05-17T20:28:50.058Z,13.93
2019-05-17T20:31:22.325Z,13.91
2019-05-17T20:33:54.576Z,13.93
2019-05-17T20:36:26.793Z,13.93
2019-05-17T20:38:59.141Z,13.83
2019-05-17T20:41:31.389Z,13.74
2019-05-17T20:44:03.661Z,13.71
2019-05-17T20:46:35.904Z,13.72
2019-05-17T20:49:08.126Z,13.73
2019-05-17T20:51:40.486Z,13.76
2019-05-17T20:54:12.960Z,13.83
2019-05-17T20:56:45.262Z,13.89
2019-05-17T20:59:17.583Z,13.90
2019-05-17T21:01:50.070Z,13.93
2019-05-17T21:04:22.283Z,13.94
2019-05-17T21:06:54.644Z,13.87
2019-05-17T21:09:26.937Z,13.83
2019-05-17T21:11:59.176Z,13.88
2019-05-17T21:14:31.537Z,13.93
2019-05-17T21:17:03.857Z,13.97
2019-05-17T21:19:36.110Z,14.01
2019-05-17T21:22:08.803Z,14.02
2019-05-17T21:24:41.076Z,14.03
2019-05-17T21:27:13.315Z,14.05
2019-05-17T21:29:46.806Z,14.06
2019-05-17T21:32:20.163Z,14.05
2019-05-17T21:34:52.513Z,14.06
2019-05-17T21:37:24.766Z,14.05
2019-05-17T21:39:57.003Z,14.05
2019-05-17T21:42:29.412Z,14.05
2019-05-17T21:45:01.658Z,14.03
2019-05-17T21:47:33.916Z,14.00
2019-05-17T21:50:06.170Z,13.96
2019-05-17T21:52:38.219Z,13.91
2019-05-17T21:55:10.932Z,13.89
2019-05-17T21:57:43.338Z,13.90
2019-05-17T22:00:15.565Z,13.90
2019-05-17T22:02:49.437Z,13.92
2019-05-17T22:05:21.756Z,13.89
2019-05-17T22:07:53.984Z,13.82
2019-05-17T22:10:26.330Z,13.75
2019-05-17T22:12:58.643Z,13.69
2019-05-17T22:15:31.054Z,13.66
2019-05-17T22:18:03.458Z,13.62
2019-05-17T22:20:35.729Z,13.63
2019-05-17T22:23:08.128Z,13.67
2019-05-17T22:25:40.624Z,13.68
2019-05-17T22:28:13.590Z,13.67
2019-05-17T22:30:45.843Z,13.69
2019-05-17T22:33:18.115Z,13.71
2019-05-17T22:35:52.878Z,13.73
2019-05-17T22:38:25.121Z,13.75
2019-05-17T22:40:57.471Z,13.74
2019-05-17T22:43:29.702Z,13.68
2019-05-17T22:46:01.954Z,13.66
2019-05-17T22:48:34.211Z,13.65
2019-05-17T22:51:06.419Z,13.63
2019-05-17T22:53:38.692Z,13.63
2019-05-17T22:56:10.956Z,13.62
2019-05-17T22:58:45.210Z,13.65
2019-05-17T23:01:17.469Z,13.71
2019-05-17T23:03:49.758Z,13.71
2019-05-17T23:06:21.998Z,13.71
2019-05-17T23:08:54.278Z,13.73
2019-05-17T23:11:26.722Z,13.73
2019-05-17T23:14:01.003Z,13.74
2019-05-17T23:16:33.332Z,13.75
2019-05-17T23:19:05.545Z,13.77
2019-05-17T23:21:37.833Z,13.79
2019-05-17T23:24:10.032Z,13.80
2019-05-17T23:26:42.533Z,13.82
2019-05-17T23:29:14.800Z,13.80
2019-05-17T23:31:47.039Z,13.78
2019-05-17T23:34:19.356Z,13.76
2019-05-17T23:36:51.640Z,13.68
2019-05-17T23:39:23.909Z,13.52
2019-05-17T23:41:56.261Z,13.35
2019-05-17T23:44:28.498Z,13.27
2019-05-17T23:47:07.122Z,13.21
2019-05-17T23:49:34.940Z,13.23
2019-05-17T23:52:07.357Z,13.31
2019-05-17T23:54:39.624Z,13.43
2019-05-17T23:57:11.977Z,13.51
2019-05-17T23:59:45.273Z,13.56
